Terminal Aerodrome Forecast
Issued by NWS Sioux Falls, SD

Home | Current Version | Previous Version | Graphics & Text | Print | Product List | Glossary On
Versions: 1 2 3 4 5 6 7 8 9 10 11 12 13 14 15 16 17 18 19 20 21 22 23 24 25 26 27 28
000
FTUS43 KFSD 271448 AAD
TAFFSD
TAF AMD
KFSD 271448Z 2715/2812 33012KT P6SM SCT015
     FM271600 29010KT P6SM SCT012 SCT050
     FM272200 23005KT P6SM SCT025
     FM280200 19004KT P6SM SCT025 BKN150=

USA.gov is the U.S. government's official web portal to all federal, state and local government web resources and services.